createdAt,value
2017-04-10T00:00:34.258Z,100903
2017-04-10T00:01:34.954Z,100896
2017-04-10T00:02:35.030Z,100897
2017-04-10T00:03:35.467Z,100896
2017-04-10T00:04:35.508Z,100897
2017-04-10T00:05:41.773Z,100891
2017-04-10T00:06:41.823Z,100893
2017-04-10T00:07:42.208Z,100897
2017-04-10T00:08:42.266Z,100890
2017-04-10T00:09:42.353Z,100889
2017-04-10T00:10:42.390Z,100883
2017-04-10T00:11:42.441Z,100889
2017-04-10T00:12:42.525Z,100877
2017-04-10T00:13:42.900Z,100879
2017-04-10T00:14:43.750Z,100876
2017-04-10T00:15:43.844Z,100878
2017-04-10T00:16:44.681Z,100866
2017-04-10T00:17:44.760Z,100870
2017-04-10T00:18:45.089Z,100865
2017-04-10T00:19:45.516Z,100856
2017-04-10T00:20:45.567Z,100862
2017-04-10T00:21:45.651Z,100862
2017-04-10T00:22:45.915Z,100858
2017-04-10T00:23:46.271Z,100850
2017-04-10T00:24:46.320Z,100855
2017-04-10T00:25:46.358Z,100856
2017-04-10T00:26:47.149Z,100857
2017-04-10T00:27:47.470Z,100845
2017-04-10T00:28:48.019Z,100845
2017-04-10T00:29:48.831Z,100843
2017-04-10T00:30:49.601Z,100850
2017-04-10T00:31:49.592Z,100832
2017-04-10T00:32:49.720Z,100835
2017-04-10T00:33:50.027Z,100836
2017-04-10T00:34:50.161Z,100844
2017-04-10T00:35:50.202Z,100829
2017-04-10T00:36:50.229Z,100827
2017-04-10T00:37:50.267Z,100823
2017-04-10T00:38:51.975Z,100823
2017-04-10T00:39:52.001Z,100824
2017-04-10T00:40:52.042Z,100818
2017-04-10T00:41:52.459Z,100826
2017-04-10T00:42:52.517Z,100822
2017-04-10T00:43:52.931Z,100813
2017-04-10T00:44:52.944Z,100773
2017-04-10T00:45:54.655Z,100812
2017-04-10T00:46:54.726Z,100807
2017-04-10T00:47:54.739Z,100811
2017-04-10T00:48:55.170Z,100801
2017-04-10T00:49:55.197Z,100805
2017-04-10T00:50:56.034Z,100788
2017-04-10T00:51:56.094Z,100788
2017-04-10T00:52:56.900Z,100794
2017-04-10T00:53:57.310Z,100789
2017-04-10T00:54:57.311Z,100794
2017-04-10T00:55:58.045Z,100785
2017-04-10T00:56:58.083Z,100790
2017-04-10T00:57:58.144Z,100788
2017-04-10T00:58:59.374Z,100794
2017-04-10T01:00:00.212Z,100781
2017-04-10T01:01:00.301Z,100788
2017-04-10T01:02:01.045Z,100786
2017-04-10T01:03:01.076Z,100787
2017-04-10T01:04:01.561Z,100779
2017-04-10T01:05:01.600Z,100783
2017-04-10T01:06:01.626Z,100783
2017-04-10T01:07:01.668Z,100775
2017-04-10T01:08:02.413Z,100779
2017-04-10T01:09:03.643Z,100777
2017-04-10T01:10:03.737Z,100782
2017-04-10T01:11:04.524Z,100780
2017-04-10T01:12:04.580Z,100782
2017-04-10T01:13:05.555Z,100780
2017-04-10T01:14:05.914Z,100778
2017-04-10T01:15:06.822Z,100773
2017-04-10T01:16:06.889Z,100772
2017-04-10T01:17:06.971Z,100764
2017-04-10T01:18:07.035Z,100771
2017-04-10T01:19:07.219Z,100764
2017-04-10T01:20:07.219Z,100765
2017-04-10T01:21:07.309Z,100761
2017-04-10T01:22:07.314Z,100757
2017-04-10T01:23:07.445Z,100752
2017-04-10T01:24:07.953Z,100749
2017-04-10T01:25:08.098Z,100751
2017-04-10T01:26:08.718Z,100749
2017-04-10T01:27:08.797Z,100740
2017-04-10T01:28:09.703Z,100745
2017-04-10T01:29:10.025Z,100743
2017-04-10T01:30:10.431Z,100734
2017-04-10T01:31:10.542Z,100739
2017-04-10T01:32:11.327Z,100734
2017-04-10T01:33:11.350Z,100727
2017-04-10T01:34:11.728Z,100732
2017-04-10T01:35:11.743Z,100729
2017-04-10T01:36:11.866Z,100732
2017-04-10T01:37:11.881Z,100729
2017-04-10T01:38:11.902Z,100723
2017-04-10T01:39:12.324Z,100728
2017-04-10T01:40:12.356Z,100720
2017-04-10T01:41:12.341Z,100723
2017-04-10T01:42:13.205Z,100718
2017-04-10T01:43:19.914Z,100714
2017-04-10T01:44:20.665Z,100716
2017-04-10T01:45:21.453Z,100709
2017-04-10T01:46:21.501Z,100712
2017-04-10T01:47:21.545Z,100713
2017-04-10T01:48:21.528Z,100710
2017-04-10T01:49:21.836Z,100706
2017-04-10T01:50:21.903Z,100707
2017-04-10T01:51:22.684Z,100708
2017-04-10T01:52:22.704Z,100697
2017-04-10T01:53:22.794Z,100694
2017-04-10T01:54:23.269Z,100690
2017-04-10T01:55:24.072Z,100691
2017-04-10T01:56:24.245Z,100684
2017-04-10T01:57:24.348Z,100697
2017-04-10T01:58:24.400Z,100682
2017-04-10T01:59:24.851Z,100689
2017-04-10T02:00:24.945Z,100683
2017-04-10T02:01:25.712Z,100684
2017-04-10T02:02:25.767Z,100682
2017-04-10T02:03:25.837Z,100683
2017-04-10T02:04:26.221Z,100676
2017-04-10T02:05:26.285Z,100688
2017-04-10T02:06:26.342Z,100688
2017-04-10T02:07:26.718Z,100685
2017-04-10T02:08:26.712Z,100679
2017-04-10T02:09:27.042Z,100689
2017-04-10T02:10:27.831Z,100674
2017-04-10T02:11:27.874Z,100667
2017-04-10T02:12:27.903Z,100668
2017-04-10T02:13:28.662Z,100671
2017-04-10T02:14:29.133Z,100666
2017-04-10T02:15:29.937Z,100666
2017-04-10T02:16:29.995Z,100658
2017-04-10T02:17:30.030Z,100655
2017-04-10T02:18:30.065Z,100663
2017-04-10T02:19:30.422Z,100661
2017-04-10T02:20:30.433Z,100653
2017-04-10T02:21:30.454Z,100655
2017-04-10T02:22:30.569Z,100657
2017-04-10T02:23:30.772Z,100654
2017-04-10T02:24:31.116Z,100644
2017-04-10T02:25:31.287Z,100647
2017-04-10T02:26:31.252Z,100644
2017-04-10T02:27:32.070Z,100637
2017-04-10T02:28:32.106Z,100648
2017-04-10T02:29:32.498Z,100643
2017-04-10T02:30:32.539Z,100638
2017-04-10T02:31:32.538Z,100637
2017-04-10T02:32:32.603Z,100627
2017-04-10T02:33:32.795Z,100636
2017-04-10T02:34:32.946Z,100629
2017-04-10T02:35:32.962Z,100630
2017-04-10T02:36:33.711Z,100616
2017-04-10T02:37:33.711Z,100625
2017-04-10T02:38:33.737Z,100619
2017-04-10T02:39:34.126Z,100620
2017-04-10T02:40:34.827Z,100621
2017-04-10T02:41:35.594Z,100627
2017-04-10T02:42:35.628Z,100622
2017-04-10T02:43:35.715Z,100625
2017-04-10T02:44:36.074Z,100628
2017-04-10T02:45:36.258Z,100629
2017-04-10T02:46:36.243Z,100621
2017-04-10T02:47:36.267Z,100618
2017-04-10T02:48:36.251Z,100620
2017-04-10T02:49:36.835Z,100613
2017-04-10T02:50:37.634Z,100608
2017-04-10T02:51:37.687Z,100606
2017-04-10T02:52:37.692Z,100601
2017-04-10T02:53:37.842Z,100602
2017-04-10T02:54:38.182Z,100600
2017-04-10T02:55:38.245Z,100608
2017-04-10T02:56:38.226Z,100605
2017-04-10T02:57:38.247Z,100610
2017-04-10T02:58:38.267Z,100597
2017-04-10T02:59:38.657Z,100598
2017-04-10T03:00:39.262Z,100593
2017-04-10T03:01:40.043Z,100605
2017-04-10T03:02:40.011Z,100587
2017-04-10T03:03:40.042Z,100596
2017-04-10T03:04:40.474Z,100597
2017-04-10T03:05:40.503Z,100591
2017-04-10T03:06:41.482Z,100590
2017-04-10T03:07:41.515Z,100593
2017-04-10T03:08:41.555Z,100578
2017-04-10T03:09:42.687Z,100583
2017-04-10T03:10:43.600Z,100586
2017-04-10T03:11:44.766Z,100591
2017-04-10T03:12:45.636Z,100580
2017-04-10T03:13:45.662Z,100580
2017-04-10T03:14:46.214Z,100575
2017-04-10T03:15:47.051Z,100572
2017-04-10T03:16:47.094Z,100575
2017-04-10T03:17:47.154Z,100567
2017-04-10T03:18:48.018Z,100569
2017-04-10T03:19:48.386Z,100563
2017-04-10T03:20:50.096Z,100567
2017-04-10T03:21:50.397Z,100559
2017-04-10T03:22:50.695Z,100551
2017-04-10T03:23:51.558Z,100556
2017-04-10T03:24:52.015Z,100565
2017-04-10T03:25:52.750Z,100555
2017-04-10T03:26:52.799Z,100557
2017-04-10T03:27:52.847Z,100549
2017-04-10T03:28:53.634Z,100542
2017-04-10T03:29:53.971Z,100540
2017-04-10T03:30:54.038Z,100549
2017-04-10T03:31:54.076Z,100537
2017-04-10T03:32:54.134Z,100549
2017-04-10T03:33:54.202Z,100539
2017-04-10T03:34:54.572Z,100538
2017-04-10T03:35:54.714Z,100531
2017-04-10T03:36:54.884Z,100534
2017-04-10T03:37:54.994Z,100541
2017-04-10T03:38:55.012Z,100539
2017-04-10T03:39:55.340Z,100533
2017-04-10T03:40:55.407Z,100524
2017-04-10T03:41:55.424Z,100538
2017-04-10T03:42:55.446Z,100545
2017-04-10T03:43:55.443Z,100543
2017-04-10T03:44:55.878Z,100538
2017-04-10T03:45:55.902Z,100548
2017-04-10T03:46:56.798Z,100551
2017-04-10T03:47:56.941Z,100547
2017-04-10T03:48:56.979Z,100545
2017-04-10T03:49:57.389Z,100541
2017-04-10T03:50:58.175Z,100549
2017-04-10T03:51:58.937Z,100552
2017-04-10T03:52:59.745Z,100540
2017-04-10T03:53:59.874Z,100545
2017-04-10T03:55:01.019Z,100545
2017-04-10T03:56:01.098Z,100575
2017-04-10T03:57:01.266Z,100553
2017-04-10T03:58:01.286Z,100540
2017-04-10T03:59:01.283Z,100537
2017-04-10T04:00:01.661Z,100546
2017-04-10T04:01:01.748Z,100538
2017-04-10T04:02:01.752Z,100524
2017-04-10T04:03:01.840Z,100533
2017-04-10T04:04:02.411Z,100541
2017-04-10T04:05:02.711Z,100524
2017-04-10T04:06:03.533Z,100531
2017-04-10T04:07:03.584Z,100435
2017-04-10T04:08:03.599Z,100529
2017-04-10T04:09:03.719Z,100536
2017-04-10T04:10:04.183Z,100530
2017-04-10T04:11:05.037Z,100539
2017-04-10T04:12:05.127Z,100532
2017-04-10T04:13:05.245Z,100537
2017-04-10T04:14:05.422Z,100533
2017-04-10T04:15:06.807Z,100539
2017-04-10T04:16:06.879Z,100544
2017-04-10T04:17:07.842Z,100529
2017-04-10T04:18:08.434Z,100526
2017-04-10T04:19:09.251Z,100527
2017-04-10T04:20:10.494Z,100529
2017-04-10T04:21:10.626Z,100534
2017-04-10T04:22:10.642Z,100532
2017-04-10T04:23:10.727Z,100527
2017-04-10T04:24:12.083Z,100524
2017-04-10T04:25:12.508Z,100529
2017-04-10T04:26:12.543Z,100520
2017-04-10T04:27:12.687Z,100516
2017-04-10T04:28:12.730Z,100529
2017-04-10T04:29:12.810Z,100526
2017-04-10T04:30:13.318Z,100525
2017-04-10T04:31:13.782Z,100526
2017-04-10T04:32:13.842Z,100534
2017-04-10T04:33:13.886Z,100531
2017-04-10T04:34:13.926Z,100541
2017-04-10T04:35:14.277Z,100543
2017-04-10T04:36:14.421Z,100533
2017-04-10T04:37:14.427Z,100538
2017-04-10T04:38:14.474Z,100541
2017-04-10T04:39:14.470Z,100531
2017-04-10T04:40:14.800Z,100532
2017-04-10T04:41:14.874Z,100534
2017-04-10T04:42:14.901Z,100546
2017-04-10T04:43:14.938Z,100540
2017-04-10T04:44:15.696Z,100525
2017-04-10T04:45:16.269Z,100550
2017-04-10T04:47:23.457Z,100541
2017-04-10T04:48:24.251Z,100545
2017-04-10T04:49:24.427Z,100548
2017-04-10T04:50:24.503Z,100557
2017-04-10T04:51:25.314Z,100552
2017-04-10T04:52:25.412Z,100564
2017-04-10T04:53:25.397Z,100557
2017-04-10T04:54:25.446Z,100550
2017-04-10T04:55:26.236Z,100556
2017-04-10T04:56:26.287Z,100555
2017-04-10T04:57:26.354Z,100554
2017-04-10T04:58:26.413Z,100551
2017-04-10T04:59:26.531Z,100555
2017-04-10T05:00:27.132Z,100560
2017-04-10T05:01:27.218Z,100559
2017-04-10T05:02:27.351Z,100560
2017-04-10T05:03:27.514Z,100567
2017-04-10T05:04:27.724Z,100560
2017-04-10T05:05:28.321Z,100579
2017-04-10T05:06:29.202Z,100572
2017-04-10T05:07:29.311Z,100566
2017-04-10T05:08:29.400Z,100566
2017-04-10T05:09:29.478Z,100561
2017-04-10T05:10:29.949Z,100562
2017-04-10T05:11:30.753Z,100563
2017-04-10T05:12:30.874Z,100566
2017-04-10T05:13:30.962Z,100566
2017-04-10T05:14:31.247Z,100564
2017-04-10T05:15:31.630Z,100575
2017-04-10T05:16:31.790Z,100572
2017-04-10T05:17:31.977Z,100569
2017-04-10T05:18:32.082Z,100570
2017-04-10T05:19:32.402Z,100570
2017-04-10T05:20:32.879Z,100573
2017-04-10T05:21:32.903Z,100572
2017-04-10T05:22:34.653Z,100571
2017-04-10T05:23:34.869Z,100576
2017-04-10T05:24:34.920Z,100571
2017-04-10T05:25:35.475Z,100576
2017-04-10T05:26:35.498Z,100579
2017-04-10T05:27:36.310Z,100575
2017-04-10T05:28:36.352Z,100578
2017-04-10T05:29:36.500Z,100583
2017-04-10T05:30:37.066Z,100581
2017-04-10T05:31:37.087Z,100578
2017-04-10T05:32:37.148Z,100582
2017-04-10T05:33:37.216Z,100565
2017-04-10T05:34:37.295Z,100578
2017-04-10T05:35:38.177Z,100582
2017-04-10T05:36:38.266Z,100594
2017-04-10T05:37:38.297Z,100596
2017-04-10T05:38:38.473Z,100589
2017-04-10T05:39:38.610Z,100592
2017-04-10T05:40:39.373Z,100597
2017-04-10T05:41:39.467Z,100590
2017-04-10T05:42:40.001Z,100603
2017-04-10T05:43:40.097Z,100597
2017-04-10T05:44:40.140Z,100590
2017-04-10T05:45:40.518Z,100604
2017-04-10T05:46:40.549Z,100601
2017-04-10T05:47:40.600Z,100599
2017-04-10T05:48:40.708Z,100601
2017-04-10T05:49:40.834Z,100604
2017-04-10T05:50:41.283Z,100604
2017-04-10T05:51:41.362Z,100609
2017-04-10T05:52:41.609Z,100595
2017-04-10T05:53:41.785Z,100605
2017-04-10T05:54:41.831Z,100609
2017-04-10T05:55:42.320Z,100612
2017-04-10T05:56:43.130Z,100608
2017-04-10T05:57:43.225Z,100600
2017-04-10T05:58:43.473Z,100607
2017-04-10T05:59:44.488Z,100613
2017-04-10T06:00:45.732Z,100612
2017-04-10T06:01:46.736Z,100617
2017-04-10T06:02:46.852Z,100619
2017-04-10T06:03:46.982Z,100629
2017-04-10T06:04:47.737Z,100622
2017-04-10T06:05:48.105Z,100632
2017-04-10T06:06:48.283Z,100634
2017-04-10T06:07:48.244Z,100636
2017-04-10T06:08:48.316Z,100635
2017-04-10T06:09:48.562Z,100630
2017-04-10T06:10:49.073Z,100635
2017-04-10T06:11:49.204Z,100630
2017-04-10T06:12:49.307Z,100636
2017-04-10T06:13:50.238Z,100635
2017-04-10T06:14:50.319Z,100635
2017-04-10T06:15:50.731Z,100642
2017-04-10T06:16:51.005Z,100638
2017-04-10T06:17:51.057Z,100642
2017-04-10T06:18:51.123Z,100647
2017-04-10T06:19:51.273Z,100651
2017-04-10T06:20:52.116Z,100651
2017-04-10T06:21:52.986Z,100637
2017-04-10T06:22:53.134Z,100660
2017-04-10T06:23:53.961Z,100655
2017-04-10T06:24:54.772Z,100652
2017-04-10T06:25:55.236Z,100660
2017-04-10T06:26:55.293Z,100663
2017-04-10T06:27:55.484Z,100657
2017-04-10T06:28:55.609Z,100660
2017-04-10T06:29:56.371Z,100658
2017-04-10T06:30:56.894Z,100673
2017-04-10T06:31:57.060Z,100661
2017-04-10T06:32:57.163Z,100657
2017-04-10T06:33:57.225Z,100670
2017-04-10T06:34:57.355Z,100665
2017-04-10T06:35:57.829Z,100661
2017-04-10T06:36:58.469Z,100663
2017-04-10T06:37:58.570Z,100655
2017-04-10T06:38:59.391Z,100667
2017-04-10T06:39:59.441Z,100669
2017-04-10T06:40:59.769Z,100672
2017-04-10T06:41:59.899Z,100671
2017-04-10T06:43:00.130Z,100673
2017-04-10T06:44:00.954Z,100671
2017-04-10T06:45:01.128Z,100679
2017-04-10T06:46:02.311Z,100678
2017-04-10T06:47:03.167Z,100681
2017-04-10T06:48:03.293Z,100685
2017-04-10T06:49:03.324Z,100685
2017-04-10T06:50:03.525Z,100687
2017-04-10T06:51:03.986Z,100691
2017-04-10T06:52:04.074Z,100691
2017-04-10T06:53:04.718Z,100701
2017-04-10T06:54:04.713Z,100696
2017-04-10T06:55:05.539Z,100703
2017-04-10T06:56:06.703Z,100711
2017-04-10T06:57:06.869Z,100707
2017-04-10T06:58:06.975Z,100700
2017-04-10T06:59:07.010Z,100705
2017-04-10T07:00:07.143Z,100702
2017-04-10T07:01:07.527Z,100704
2017-04-10T07:02:07.991Z,100706
2017-04-10T07:03:09.117Z,100702
2017-04-10T07:04:09.187Z,100706
2017-04-10T07:05:09.246Z,100715
2017-04-10T07:06:09.631Z,100703
2017-04-10T07:07:09.796Z,100711
2017-04-10T07:08:09.960Z,100709
2017-04-10T07:09:10.043Z,100715
2017-04-10T07:10:10.106Z,100722
2017-04-10T07:11:10.542Z,100726
2017-04-10T07:12:11.370Z,100719
2017-04-10T07:13:11.538Z,100730
2017-04-10T07:14:11.623Z,100744
2017-04-10T07:15:11.726Z,100746
2017-04-10T07:16:12.347Z,100745
2017-04-10T07:17:12.610Z,100736
2017-04-10T07:18:12.718Z,100740
2017-04-10T07:19:12.784Z,100751
2017-04-10T07:20:12.909Z,100759
2017-04-10T07:21:14.639Z,100758
2017-04-10T07:22:14.846Z,100759
2017-04-10T07:23:15.155Z,100762
2017-04-10T07:24:15.274Z,100767
2017-04-10T07:25:15.378Z,100768
2017-04-10T07:26:15.771Z,100766
2017-04-10T07:27:16.049Z,100768
2017-04-10T07:28:16.128Z,100756
2017-04-10T07:29:16.262Z,100761
2017-04-10T07:30:16.322Z,100779
2017-04-10T07:31:16.523Z,100772
2017-04-10T07:32:16.688Z,100777
2017-04-10T07:33:16.805Z,100776
2017-04-10T07:34:17.338Z,100778
2017-04-10T07:35:17.457Z,100784
2017-04-10T07:36:17.878Z,100781
2017-04-10T07:37:18.957Z,100790
2017-04-10T07:38:19.118Z,100786
2017-04-10T07:39:19.983Z,100791
2017-04-10T07:40:20.000Z,100789
2017-04-10T07:41:21.027Z,100790
2017-04-10T07:42:21.154Z,100801
2017-04-10T07:43:21.269Z,100796
2017-04-10T07:44:21.355Z,100799
2017-04-10T07:45:21.527Z,100792
2017-04-10T07:46:21.955Z,100797
2017-04-10T07:47:22.071Z,100793
2017-04-10T07:48:22.169Z,100802
2017-04-10T07:49:22.362Z,100809
2017-04-10T07:50:23.182Z,100798
2017-04-10T07:51:23.510Z,100811
2017-04-10T07:52:24.306Z,100809
2017-04-10T07:53:24.385Z,100808
2017-04-10T07:54:24.483Z,100814
2017-04-10T07:55:24.549Z,100815
2017-04-10T07:56:25.788Z,100807
2017-04-10T07:57:26.134Z,100813
2017-04-10T07:58:26.215Z,100805
2017-04-10T07:59:26.294Z,100820
2017-04-10T08:00:26.406Z,100829
2017-04-10T08:01:26.947Z,100820
2017-04-10T08:02:27.894Z,100828
2017-04-10T08:03:28.005Z,100821
2017-04-10T08:04:28.088Z,100828
2017-04-10T08:05:29.005Z,100823
2017-04-10T08:06:29.533Z,100843
2017-04-10T08:07:29.676Z,100816
2017-04-10T08:08:29.750Z,100845
2017-04-10T08:09:29.843Z,100809
2017-04-10T08:10:29.910Z,100835
2017-04-10T08:11:30.349Z,100830
2017-04-10T08:12:30.465Z,100832
2017-04-10T08:13:30.606Z,100834
2017-04-10T08:14:30.778Z,100834
2017-04-10T08:15:30.886Z,100844
2017-04-10T08:16:31.385Z,100844
2017-04-10T08:17:31.498Z,100838
2017-04-10T08:18:31.623Z,100844
2017-04-10T08:19:31.757Z,100854
2017-04-10T08:20:32.545Z,100861
2017-04-10T08:21:33.015Z,100858
2017-04-10T08:22:33.885Z,100855
2017-04-10T08:23:34.134Z,100860
2017-04-10T08:24:34.235Z,100853
2017-04-10T08:25:34.314Z,100868
2017-04-10T08:26:34.810Z,100865
2017-04-10T08:27:35.661Z,100862
2017-04-10T08:28:35.777Z,100868
2017-04-10T08:29:35.845Z,100866
2017-04-10T08:30:36.686Z,100868
2017-04-10T08:31:37.179Z,100863
2017-04-10T08:32:38.087Z,100868
2017-04-10T08:33:38.990Z,100871
2017-04-10T08:34:39.072Z,100873
2017-04-10T08:35:39.246Z,100881
2017-04-10T08:36:40.478Z,100871
2017-04-10T08:37:40.650Z,100888
2017-04-10T08:38:40.798Z,100889
2017-04-10T08:39:41.036Z,100886
2017-04-10T08:40:41.101Z,100883
2017-04-10T08:41:41.486Z,100883
2017-04-10T08:42:41.582Z,100888
2017-04-10T08:43:46.116Z,100904
2017-04-10T08:44:46.250Z,100894
2017-04-10T08:45:46.368Z,100898
2017-04-10T08:46:46.761Z,100901
2017-04-10T08:47:48.929Z,100907
2017-04-10T08:48:49.036Z,100920
2017-04-10T08:49:49.122Z,100908
2017-04-10T08:50:49.253Z,100912
2017-04-10T08:51:49.713Z,100915
2017-04-10T08:52:50.581Z,100923
2017-04-10T08:53:50.690Z,100920
2017-04-10T08:54:50.822Z,100919
2017-04-10T08:55:50.971Z,100922
2017-04-10T08:56:52.306Z,100923
2017-04-10T08:57:52.491Z,100929
2017-04-10T08:58:52.604Z,100928
2017-04-10T08:59:53.478Z,100926
2017-04-10T09:00:53.659Z,100926
2017-04-10T09:01:54.086Z,100927
2017-04-10T09:02:54.127Z,100923
2017-04-10T09:03:54.148Z,100931
2017-04-10T09:04:54.316Z,100931
2017-04-10T09:05:54.334Z,100937
2017-04-10T09:06:54.700Z,100937
2017-04-10T09:07:55.885Z,100932
2017-04-10T09:08:56.120Z,100931
2017-04-10T09:09:56.247Z,100929
2017-04-10T09:10:57.149Z,100930
2017-04-10T09:11:57.559Z,100940
2017-04-10T09:12:57.766Z,100943
2017-04-10T09:13:58.417Z,100956
2017-04-10T09:14:58.547Z,100938
2017-04-10T09:15:58.806Z,100937
2017-04-10T09:16:59.307Z,100956
2017-04-10T09:17:59.435Z,100956
2017-04-10T09:18:59.494Z,100946
2017-04-10T09:20:00.271Z,100969
2017-04-10T09:21:00.368Z,100960
2017-04-10T09:22:00.859Z,100962
2017-04-10T09:23:00.973Z,100960
2017-04-10T09:24:01.107Z,100969
2017-04-10T09:25:01.218Z,100968
2017-04-10T09:26:01.311Z,100968
2017-04-10T09:27:01.663Z,100972
2017-04-10T09:28:01.869Z,100969
2017-04-10T09:29:01.965Z,100973
2017-04-10T09:30:02.139Z,100975
2017-04-10T09:31:02.365Z,100979
2017-04-10T09:32:02.726Z,100971
2017-04-10T09:33:02.870Z,100972
2017-04-10T09:34:02.920Z,100973
2017-04-10T09:35:03.118Z,100972
2017-04-10T09:36:03.970Z,100979
2017-04-10T09:37:04.440Z,100980
2017-04-10T09:38:04.497Z,100986
2017-04-10T09:39:04.833Z,100989
2017-04-10T09:40:05.134Z,100993
2017-04-10T09:41:05.201Z,100991
2017-04-10T09:42:05.669Z,100991
2017-04-10T09:43:05.967Z,100996
2017-04-10T09:44:06.144Z,101010
2017-04-10T09:45:06.253Z,101009
2017-04-10T09:46:06.318Z,100996
2017-04-10T09:47:07.453Z,101004
2017-04-10T09:48:07.585Z,101014
2017-04-10T09:49:14.415Z,101014
2017-04-10T09:50:14.629Z,101004
2017-04-10T09:51:15.506Z,101009
2017-04-10T09:52:15.964Z,100989
2017-04-10T09:53:16.155Z,100996
2017-04-10T09:54:16.227Z,100996
2017-04-10T09:55:16.411Z,101005
2017-04-10T09:56:16.566Z,101012
2017-04-10T09:57:17.340Z,101011
2017-04-10T09:58:17.690Z,101012
2017-04-10T09:59:17.873Z,101010
2017-04-10T10:00:18.702Z,101020
2017-04-10T10:01:19.544Z,101015
2017-04-10T10:02:19.930Z,101023
2017-04-10T10:03:20.258Z,101017
2017-04-10T10:04:20.428Z,101018
2017-04-10T10:05:21.054Z,101025
2017-04-10T10:06:21.222Z,101042
2017-04-10T10:07:21.840Z,101021
2017-04-10T10:08:22.055Z,101019
2017-04-10T10:09:22.176Z,101031
2017-04-10T10:10:22.244Z,101018
2017-04-10T10:11:22.327Z,101019
2017-04-10T10:12:22.661Z,101022
2017-04-10T10:13:22.776Z,101029
2017-04-10T10:14:22.919Z,101032
2017-04-10T10:15:22.966Z,101032
2017-04-10T10:16:23.112Z,101027
2017-04-10T10:17:23.638Z,101023
2017-04-10T10:18:23.941Z,101022
2017-04-10T10:19:24.751Z,101024
2017-04-10T10:20:24.837Z,101032
2017-04-10T10:21:25.028Z,101034
2017-04-10T10:22:25.476Z,101028
2017-04-10T10:23:25.610Z,101034
2017-04-10T10:24:25.716Z,101026
2017-04-10T10:25:25.771Z,101040
2017-04-10T10:26:25.825Z,101020
2017-04-10T10:27:26.911Z,101024
2017-04-10T10:28:27.700Z,101033
2017-04-10T10:29:27.799Z,101034
2017-04-10T10:30:27.924Z,101036
2017-04-10T10:31:28.023Z,101023
2017-04-10T10:32:28.658Z,101044
2017-04-10T10:33:29.166Z,101009
2017-04-10T10:34:29.551Z,101040
2017-04-10T10:35:29.628Z,101009
2017-04-10T10:36:30.018Z,101025
2017-04-10T10:37:30.500Z,101027
2017-04-10T10:38:31.158Z,101032
2017-04-10T10:39:31.284Z,101028
2017-04-10T10:40:31.331Z,101029
2017-04-10T10:41:32.175Z,101037
2017-04-10T10:42:32.819Z,101042
2017-04-10T10:43:32.990Z,101052
2017-04-10T10:44:33.038Z,101050
2017-04-10T10:45:33.108Z,101037
2017-04-10T10:46:34.109Z,101046
2017-04-10T10:47:34.799Z,101048
2017-04-10T10:48:35.044Z,101052
2017-04-10T10:49:35.228Z,101050
2017-04-10T10:50:35.419Z,101045
2017-04-10T10:51:35.468Z,101044
2017-04-10T10:52:35.970Z,101032
2017-04-10T10:53:36.109Z,101042
2017-04-10T10:54:36.224Z,101033
2017-04-10T10:55:37.070Z,101036
2017-04-10T10:56:37.132Z,101047
2017-04-10T10:57:37.698Z,101047
2017-04-10T10:58:38.518Z,101037
2017-04-10T10:59:48.374Z,101033
2017-04-10T11:00:48.447Z,101029
2017-04-10T11:01:48.567Z,101041
2017-04-10T11:02:49.002Z,101029
2017-04-10T11:03:50.100Z,101030
2017-04-10T11:04:50.269Z,101034
2017-04-10T11:05:50.518Z,101032
2017-04-10T11:06:50.623Z,101026
2017-04-10T11:07:51.079Z,101037
2017-04-10T11:08:51.237Z,101035
2017-04-10T11:09:51.432Z,101031
2017-04-10T11:10:51.506Z,101030
2017-04-10T11:11:52.368Z,101036
2017-04-10T11:12:52.786Z,101032
2017-04-10T11:13:52.900Z,101032
2017-04-10T11:14:53.021Z,101039
2017-04-10T11:15:53.096Z,101042
2017-04-10T11:16:53.194Z,101037
2017-04-10T11:17:53.545Z,101035
2017-04-10T11:18:53.588Z,101044
2017-04-10T11:19:53.699Z,101046
2017-04-10T11:20:53.743Z,101044
2017-04-10T11:21:53.777Z,101044
2017-04-10T11:22:54.177Z,101043
2017-04-10T11:23:54.765Z,101036
2017-04-10T11:24:55.642Z,101041
2017-04-10T11:25:55.704Z,101043
2017-04-10T11:26:55.759Z,101049
2017-04-10T11:27:56.158Z,101064
2017-04-10T11:28:56.263Z,101050
2017-04-10T11:29:56.583Z,101058
2017-04-10T11:30:56.705Z,101055
2017-04-10T11:31:58.285Z,101066
2017-04-10T11:32:58.669Z,101064
2017-04-10T11:33:58.793Z,101063
2017-04-10T11:34:58.945Z,101075
2017-04-10T11:35:59.316Z,101055
2017-04-10T11:36:59.519Z,101064
2017-04-10T11:38:00.096Z,101066
2017-04-10T11:39:00.208Z,101065
2017-04-10T11:52:55.578Z,101081
2017-04-10T11:53:55.793Z,101077
2017-04-10T11:54:56.155Z,101084
2017-04-10T11:55:56.381Z,101086
2017-04-10T11:56:57.200Z,101095
2017-04-10T11:57:57.309Z,101090
2017-04-10T11:58:57.530Z,101091
2017-04-10T11:59:58.421Z,101088
2017-04-10T12:00:58.513Z,101084
2017-04-10T12:01:58.606Z,101094
2017-04-10T12:02:58.735Z,101089
2017-04-10T12:03:58.998Z,101092
2017-04-10T12:05:00.242Z,101095
2017-04-10T12:06:01.713Z,101102
2017-04-10T12:07:01.783Z,101094
2017-04-10T12:08:02.863Z,101102
2017-04-10T12:09:03.115Z,101118
2017-04-10T12:10:03.621Z,101106
2017-04-10T12:11:04.546Z,101096
2017-04-10T12:12:04.867Z,101112
2017-04-10T12:13:05.149Z,101099
2017-04-10T12:14:05.206Z,101113
2017-04-10T12:15:06.052Z,101115
2017-04-10T12:16:06.191Z,101114
2017-04-10T12:17:06.289Z,101111
2017-04-10T12:18:07.166Z,101104
2017-04-10T12:19:07.464Z,101121
2017-04-10T12:20:07.708Z,101105
2017-04-10T12:21:09.169Z,101107
2017-04-10T12:22:09.263Z,101107
2017-04-10T12:23:10.077Z,101104
2017-04-10T12:24:10.808Z,101100
2017-04-10T12:25:12.059Z,101125
2017-04-10T12:26:12.193Z,101128
2017-04-10T12:27:12.470Z,101117
2017-04-10T12:28:13.322Z,101124
2017-04-10T12:29:13.514Z,101106
2017-04-10T12:30:14.072Z,101111
2017-04-10T12:31:14.267Z,101122
2017-04-10T12:32:14.302Z,101116
2017-04-10T12:33:14.442Z,101124
2017-04-10T12:34:15.465Z,101134
2017-04-10T12:35:16.475Z,101124
2017-04-10T12:36:16.579Z,101123
2017-04-10T12:37:16.671Z,101124
2017-04-10T12:38:16.691Z,101119
2017-04-10T12:39:16.855Z,101125
2017-04-10T12:40:18.027Z,101136
2017-04-10T12:41:18.082Z,101137
2017-04-10T12:42:18.901Z,101127
2017-04-10T12:43:19.338Z,101136
2017-04-10T12:44:20.225Z,101129
2017-04-10T12:45:20.765Z,101133
2017-04-10T12:46:21.565Z,101131
2017-04-10T12:47:21.733Z,101137